sensor_id;sensor_type;location;lat;lon;timestamp;P1;durP1;ratioP1;P2;durP2;ratioP2
72601;SDS011;60644;55.858;37.390;2024-02-04T00:01:39;12.93;;;4.43;;
72601;SDS011;60644;55.858;37.390;2024-02-04T00:04:05;14.57;;;5.07;;
72601;SDS011;60644;55.858;37.390;2024-02-04T00:06:30;16.30;;;5.70;;
72601;SDS011;60644;55.858;37.390;2024-02-04T00:08:56;12.25;;;4.07;;
72601;SDS011;60644;55.858;37.390;2024-02-04T00:11:22;11.02;;;3.90;;
72601;SDS011;60644;55.858;37.390;2024-02-04T00:13:48;13.13;;;5.43;;
72601;SDS011;60644;55.858;37.390;2024-02-04T00:16:13;11.70;;;3.70;;
72601;SDS011;60644;55.858;37.390;2024-02-04T00:18:39;8.67;;;3.57;;
72601;SDS011;60644;55.858;37.390;2024-02-04T00:21:05;11.18;;;3.83;;
72601;SDS011;60644;55.858;37.390;2024-02-04T00:23:30;11.40;;;4.50;;
72601;SDS011;60644;55.858;37.390;2024-02-04T00:25:56;11.52;;;3.97;;
72601;SDS011;60644;55.858;37.390;2024-02-04T00:28:22;10.83;;;3.77;;
72601;SDS011;60644;55.858;37.390;2024-02-04T00:30:47;10.35;;;4.05;;
72601;SDS011;60644;55.858;37.390;2024-02-04T00:33:15;13.17;;;5.63;;
72601;SDS011;60644;55.858;37.390;2024-02-04T00:35:41;11.48;;;3.85;;
72601;SDS011;60644;55.858;37.390;2024-02-04T00:38:07;12.25;;;4.47;;
72601;SDS011;60644;55.858;37.390;2024-02-04T00:40:34;11.77;;;4.40;;
72601;SDS011;60644;55.858;37.390;2024-02-04T00:42:59;10.37;;;4.23;;
72601;SDS011;60644;55.858;37.390;2024-02-04T00:45:25;10.77;;;3.65;;
72601;SDS011;60644;55.858;37.390;2024-02-04T00:47:51;11.43;;;4.00;;
72601;SDS011;60644;55.858;37.390;2024-02-04T00:50:17;14.65;;;4.90;;
72601;SDS011;60644;55.858;37.390;2024-02-04T00:52:42;15.27;;;3.70;;
72601;SDS011;60644;55.858;37.390;2024-02-04T00:55:08;12.95;;;4.70;;
72601;SDS011;60644;55.858;37.390;2024-02-04T00:57:34;10.63;;;3.47;;
72601;SDS011;60644;55.858;37.390;2024-02-04T01:00:00;10.93;;;3.47;;
72601;SDS011;60644;55.858;37.390;2024-02-04T01:02:26;12.40;;;5.35;;
72601;SDS011;60644;55.858;37.390;2024-02-04T01:04:52;11.53;;;4.17;;
72601;SDS011;60644;55.858;37.390;2024-02-04T01:07:17;12.70;;;4.47;;
72601;SDS011;60644;55.858;37.390;2024-02-04T01:09:43;14.07;;;4.70;;
72601;SDS011;60644;55.858;37.390;2024-02-04T01:12:09;12.95;;;6.07;;
72601;SDS011;60644;55.858;37.390;2024-02-04T01:14:35;13.32;;;4.72;;
72601;SDS011;60644;55.858;37.390;2024-02-04T01:17:01;10.60;;;4.10;;
72601;SDS011;60644;55.858;37.390;2024-02-04T01:19:26;9.18;;;3.38;;
72601;SDS011;60644;55.858;37.390;2024-02-04T01:21:52;12.10;;;5.37;;
72601;SDS011;60644;55.858;37.390;2024-02-04T01:24:18;9.93;;;4.03;;
72601;SDS011;60644;55.858;37.390;2024-02-04T01:26:43;12.13;;;4.43;;
72601;SDS011;60644;55.858;37.390;2024-02-04T01:29:09;10.60;;;3.47;;
72601;SDS011;60644;55.858;37.390;2024-02-04T01:31:34;12.23;;;4.22;;
72601;SDS011;60644;55.858;37.390;2024-02-04T01:34:00;11.93;;;3.90;;
72601;SDS011;60644;55.858;37.390;2024-02-04T01:36:26;13.68;;;4.50;;
72601;SDS011;60644;55.858;37.390;2024-02-04T01:38:52;10.23;;;3.93;;
72601;SDS011;60644;55.858;37.390;2024-02-04T01:41:17;10.00;;;3.97;;
72601;SDS011;60644;55.858;37.390;2024-02-04T01:43:43;9.40;;;3.63;;
72601;SDS011;60644;55.858;37.390;2024-02-04T01:46:09;14.25;;;4.05;;
72601;SDS011;60644;55.858;37.390;2024-02-04T01:48:35;9.95;;;3.80;;
72601;SDS011;60644;55.858;37.390;2024-02-04T01:51:01;10.20;;;3.10;;
72601;SDS011;60644;55.858;37.390;2024-02-04T01:53:28;10.30;;;3.35;;
72601;SDS011;60644;55.858;37.390;2024-02-04T01:55:53;10.13;;;3.95;;
72601;SDS011;60644;55.858;37.390;2024-02-04T01:58:20;10.27;;;3.77;;
72601;SDS011;60644;55.858;37.390;2024-02-04T02:00:46;11.23;;;3.22;;
72601;SDS011;60644;55.858;37.390;2024-02-04T02:03:12;8.55;;;2.58;;
72601;SDS011;60644;55.858;37.390;2024-02-04T02:05:39;9.67;;;3.50;;
72601;SDS011;60644;55.858;37.390;2024-02-04T02:08:05;9.65;;;3.00;;
72601;SDS011;60644;55.858;37.390;2024-02-04T02:10:31;7.55;;;2.10;;
72601;SDS011;60644;55.858;37.390;2024-02-04T02:13:00;7.10;;;2.03;;
72601;SDS011;60644;55.858;37.390;2024-02-04T02:15:34;6.97;;;1.73;;
72601;SDS011;60644;55.858;37.390;2024-02-04T02:20:32;7.07;;;2.03;;
72601;SDS011;60644;55.858;37.390;2024-02-04T02:25:31;6.43;;;1.60;;
72601;SDS011;60644;55.858;37.390;2024-02-04T02:27:57;6.93;;;1.83;;
72601;SDS011;60644;55.858;37.390;2024-02-04T02:30:23;6.53;;;1.67;;
72601;SDS011;60644;55.858;37.390;2024-02-04T02:32:49;6.70;;;1.50;;
72601;SDS011;60644;55.858;37.390;2024-02-04T02:35:18;4.73;;;1.30;;
72601;SDS011;60644;55.858;37.390;2024-02-04T02:42:36;5.78;;;1.55;;
72601;SDS011;60644;55.858;37.390;2024-02-04T02:45:03;5.03;;;1.03;;
72601;SDS011;60644;55.858;37.390;2024-02-04T02:47:29;5.45;;;1.40;;
72601;SDS011;60644;55.858;37.390;2024-02-04T02:49:56;4.95;;;1.05;;
72601;SDS011;60644;55.858;37.390;2024-02-04T02:52:22;4.28;;;1.05;;
72601;SDS011;60644;55.858;37.390;2024-02-04T02:54:47;3.53;;;0.80;;
72601;SDS011;60644;55.858;37.390;2024-02-04T02:57:13;5.22;;;1.08;;
72601;SDS011;60644;55.858;37.390;2024-02-04T02:59:38;4.93;;;1.20;;
72601;SDS011;60644;55.858;37.390;2024-02-04T03:02:04;4.73;;;0.90;;
72601;SDS011;60644;55.858;37.390;2024-02-04T03:04:30;3.92;;;0.80;;
72601;SDS011;60644;55.858;37.390;2024-02-04T03:06:56;4.67;;;1.13;;
72601;SDS011;60644;55.858;37.390;2024-02-04T03:09:22;5.07;;;0.70;;
72601;SDS011;60644;55.858;37.390;2024-02-04T03:11:47;4.28;;;0.80;;
72601;SDS011;60644;55.858;37.390;2024-02-04T03:14:16;4.63;;;1.07;;
72601;SDS011;60644;55.858;37.390;2024-02-04T03:16:45;4.18;;;0.60;;
72601;SDS011;60644;55.858;37.390;2024-02-04T03:19:11;4.75;;;0.88;;
72601;SDS011;60644;55.858;37.390;2024-02-04T03:21:37;3.72;;;0.70;;
72601;SDS011;60644;55.858;37.390;2024-02-04T03:24:04;3.33;;;0.80;;
72601;SDS011;60644;55.858;37.390;2024-02-04T03:26:30;3.05;;;0.52;;
72601;SDS011;60644;55.858;37.390;2024-02-04T03:28:55;2.87;;;0.40;;
72601;SDS011;60644;55.858;37.390;2024-02-04T03:31:21;3.35;;;0.50;;
72601;SDS011;60644;55.858;37.390;2024-02-04T03:33:47;2.97;;;0.40;;
72601;SDS011;60644;55.858;37.390;2024-02-04T03:36:17;2.73;;;0.40;;
72601;SDS011;60644;55.858;37.390;2024-02-04T03:38:43;2.38;;;0.30;;
72601;SDS011;60644;55.858;37.390;2024-02-04T03:41:10;3.40;;;0.50;;
72601;SDS011;60644;55.858;37.390;2024-02-04T03:43:36;2.13;;;0.35;;
72601;SDS011;60644;55.858;37.390;2024-02-04T03:46:02;2.30;;;0.40;;
72601;SDS011;60644;55.858;37.390;2024-02-04T03:48:28;2.75;;;0.50;;
72601;SDS011;60644;55.858;37.390;2024-02-04T03:50:54;2.92;;;0.30;;
72601;SDS011;60644;55.858;37.390;2024-02-04T03:53:20;2.15;;;0.40;;
72601;SDS011;60644;55.858;37.390;2024-02-04T03:55:48;1.87;;;0.20;;
72601;SDS011;60644;55.858;37.390;2024-02-04T03:58:14;2.00;;;0.30;;
72601;SDS011;60644;55.858;37.390;2024-02-04T04:00:40;2.45;;;0.30;;
72601;SDS011;60644;55.858;37.390;2024-02-04T04:03:06;2.17;;;0.40;;
72601;SDS011;60644;55.858;37.390;2024-02-04T04:05:31;1.92;;;0.30;;
72601;SDS011;60644;55.858;37.390;2024-02-04T04:07:57;2.50;;;0.40;;
72601;SDS011;60644;55.858;37.390;2024-02-04T04:10:23;1.98;;;0.20;;
72601;SDS011;60644;55.858;37.390;2024-02-04T04:12:49;2.00;;;0.30;;
72601;SDS011;60644;55.858;37.390;2024-02-04T04:15:14;1.98;;;0.20;;
72601;SDS011;60644;55.858;37.390;2024-02-04T04:17:40;1.23;;;0.20;;
72601;SDS011;60644;55.858;37.390;2024-02-04T04:20:06;2.33;;;0.30;;
72601;SDS011;60644;55.858;37.390;2024-02-04T04:22:32;2.17;;;0.22;;
72601;SDS011;60644;55.858;37.390;2024-02-04T04:24:58;1.05;;;0.10;;
72601;SDS011;60644;55.858;37.390;2024-02-04T04:27:23;2.37;;;0.27;;
72601;SDS011;60644;55.858;37.390;2024-02-04T04:29:49;1.15;;;0.10;;
72601;SDS011;60644;55.858;37.390;2024-02-04T04:32:15;1.30;;;0.20;;
72601;SDS011;60644;55.858;37.390;2024-02-04T04:34:41;2.05;;;0.20;;
72601;SDS011;60644;55.858;37.390;2024-02-04T04:37:06;1.17;;;0.10;;
72601;SDS011;60644;55.858;37.390;2024-02-04T04:39:32;1.30;;;0.20;;
72601;SDS011;60644;55.858;37.390;2024-02-04T04:41:58;1.70;;;0.10;;
72601;SDS011;60644;55.858;37.390;2024-02-04T04:44:23;1.40;;;0.10;;
72601;SDS011;60644;55.858;37.390;2024-02-04T04:46:49;1.67;;;0.20;;
72601;SDS011;60644;55.858;37.390;2024-02-04T04:49:15;0.80;;;0.10;;
72601;SDS011;60644;55.858;37.390;2024-02-04T04:51:44;2.08;;;0.20;;
72601;SDS011;60644;55.858;37.390;2024-02-04T04:54:10;1.10;;;0.10;;
72601;SDS011;60644;55.858;37.390;2024-02-04T04:56:39;1.23;;;0.20;;
72601;SDS011;60644;55.858;37.390;2024-02-04T04:59:08;0.82;;;0.10;;
72601;SDS011;60644;55.858;37.390;2024-02-04T05:01:34;1.52;;;0.15;;
72601;SDS011;60644;55.858;37.390;2024-02-04T05:04:00;1.50;;;0.10;;
72601;SDS011;60644;55.858;37.390;2024-02-04T05:06:26;1.48;;;0.10;;
72601;SDS011;60644;55.858;37.390;2024-02-04T05:08:52;0.95;;;0.10;;
72601;SDS011;60644;55.858;37.390;2024-02-04T05:11:18;1.10;;;0.10;;
72601;SDS011;60644;55.858;37.390;2024-02-04T05:13:43;1.80;;;0.20;;
72601;SDS011;60644;55.858;37.390;2024-02-04T05:16:10;0.80;;;0.10;;
72601;SDS011;60644;55.858;37.390;2024-02-04T05:18:36;1.23;;;0.10;;
72601;SDS011;60644;55.858;37.390;2024-02-04T05:21:03;0.77;;;0.20;;
72601;SDS011;60644;55.858;37.390;2024-02-04T05:23:29;0.60;;;0.10;;
72601;SDS011;60644;55.858;37.390;2024-02-04T05:25:55;0.50;;;0.00;;
72601;SDS011;60644;55.858;37.390;2024-02-04T05:28:20;1.47;;;0.10;;
72601;SDS011;60644;55.858;37.390;2024-02-04T05:30:46;0.63;;;0.10;;
72601;SDS011;60644;55.858;37.390;2024-02-04T05:33:14;0.50;;;0.10;;
72601;SDS011;60644;55.858;37.390;2024-02-04T05:35:41;1.23;;;0.10;;
72601;SDS011;60644;55.858;37.390;2024-02-04T05:38:09;0.80;;;0.10;;
72601;SDS011;60644;55.858;37.390;2024-02-04T05:40:35;1.25;;;0.10;;
72601;SDS011;60644;55.858;37.390;2024-02-04T05:43:01;0.63;;;0.05;;
72601;SDS011;60644;55.858;37.390;2024-02-04T05:45:32;0.77;;;0.10;;
72601;SDS011;60644;55.858;37.390;2024-02-04T05:47:58;0.82;;;0.00;;
72601;SDS011;60644;55.858;37.390;2024-02-04T05:50:24;0.52;;;0.10;;
72601;SDS011;60644;55.858;37.390;2024-02-04T05:52:50;0.93;;;0.10;;
72601;SDS011;60644;55.858;37.390;2024-02-04T05:55:15;1.10;;;0.10;;
72601;SDS011;60644;55.858;37.390;2024-02-04T05:57:41;0.67;;;0.10;;
72601;SDS011;60644;55.858;37.390;2024-02-04T06:00:07;0.93;;;0.00;;
72601;SDS011;60644;55.858;37.390;2024-02-04T06:02:35;0.93;;;0.10;;
72601;SDS011;60644;55.858;37.390;2024-02-04T06:05:00;0.73;;;0.00;;
72601;SDS011;60644;55.858;37.390;2024-02-04T06:07:26;0.52;;;0.00;;
72601;SDS011;60644;55.858;37.390;2024-02-04T06:09:52;0.10;;;0.00;;
72601;SDS011;60644;55.858;37.390;2024-02-04T06:12:17;1.00;;;0.00;;
72601;SDS011;60644;55.858;37.390;2024-02-04T06:14:43;0.70;;;0.00;;
72601;SDS011;60644;55.858;37.390;2024-02-04T06:17:09;0.30;;;0.00;;
72601;SDS011;60644;55.858;37.390;2024-02-04T06:19:35;0.60;;;0.00;;
72601;SDS011;60644;55.858;37.390;2024-02-04T06:22:01;0.80;;;0.10;;
72601;SDS011;60644;55.858;37.390;2024-02-04T06:24:27;0.73;;;0.07;;
72601;SDS011;60644;55.858;37.390;2024-02-04T06:26:53;0.73;;;0.00;;
72601;SDS011;60644;55.858;37.390;2024-02-04T06:29:18;0.40;;;0.00;;
72601;SDS011;60644;55.858;37.390;2024-02-04T06:31:44;0.73;;;0.00;;
72601;SDS011;60644;55.858;37.390;2024-02-04T06:34:11;1.20;;;0.00;;
72601;SDS011;60644;55.858;37.390;2024-02-04T06:36:36;0.98;;;0.00;;
72601;SDS011;60644;55.858;37.390;2024-02-04T06:39:02;0.27;;;0.00;;
72601;SDS011;60644;55.858;37.390;2024-02-04T06:41:28;0.43;;;0.00;;
72601;SDS011;60644;55.858;37.390;2024-02-04T06:43:53;0.30;;;0.00;;
72601;SDS011;60644;55.858;37.390;2024-02-04T06:46:25;0.40;;;0.00;;
72601;SDS011;60644;55.858;37.390;2024-02-04T06:48:51;0.60;;;0.00;;
72601;SDS011;60644;55.858;37.390;2024-02-04T06:51:17;0.30;;;0.00;;
72601;SDS011;60644;55.858;37.390;2024-02-04T06:53:42;0.20;;;0.00;;
72601;SDS011;60644;55.858;37.390;2024-02-04T06:56:08;0.77;;;0.10;;
72601;SDS011;60644;55.858;37.390;2024-02-04T06:58:36;0.22;;;0.00;;
72601;SDS011;60644;55.858;37.390;2024-02-04T07:01:02;0.53;;;0.00;;
72601;SDS011;60644;55.858;37.390;2024-02-04T07:03:28;0.40;;;0.00;;
72601;SDS011;60644;55.858;37.390;2024-02-04T07:05:54;0.70;;;0.00;;
72601;SDS011;60644;55.858;37.390;2024-02-04T07:08:20;0.37;;;0.00;;
72601;SDS011;60644;55.858;37.390;2024-02-04T07:10:46;0.10;;;0.00;;
72601;SDS011;60644;55.858;37.390;2024-02-04T07:13:11;0.20;;;0.00;;
72601;SDS011;60644;55.858;37.390;2024-02-04T07:15:38;0.30;;;0.00;;
72601;SDS011;60644;55.858;37.390;2024-02-04T07:18:04;0.68;;;0.00;;
72601;SDS011;60644;55.858;37.390;2024-02-04T07:20:29;0.40;;;0.00;;
72601;SDS011;60644;55.858;37.390;2024-02-04T07:22:55;0.20;;;0.00;;
72601;SDS011;60644;55.858;37.390;2024-02-04T07:25:21;0.43;;;0.00;;
72601;SDS011;60644;55.858;37.390;2024-02-04T07:27:48;0.30;;;0.00;;
72601;SDS011;60644;55.858;37.390;2024-02-04T07:30:14;0.50;;;0.00;;
72601;SDS011;60644;55.858;37.390;2024-02-04T07:32:40;0.25;;;0.00;;
72601;SDS011;60644;55.858;37.390;2024-02-04T07:35:05;0.52;;;0.00;;
72601;SDS011;60644;55.858;37.390;2024-02-04T07:37:31;1.85;;;0.20;;
72601;SDS011;60644;55.858;37.390;2024-02-04T07:39:58;0.70;;;0.00;;
72601;SDS011;60644;55.858;37.390;2024-02-04T07:42:24;1.10;;;0.10;;
72601;SDS011;60644;55.858;37.390;2024-02-04T07:44:50;0.47;;;0.00;;
72601;SDS011;60644;55.858;37.390;2024-02-04T07:47:15;1.23;;;0.00;;
72601;SDS011;60644;55.858;37.390;2024-02-04T07:49:42;1.10;;;0.10;;
72601;SDS011;60644;55.858;37.390;2024-02-04T07:52:07;0.67;;;0.00;;
72601;SDS011;60644;55.858;37.390;2024-02-04T07:54:33;1.80;;;0.10;;
72601;SDS011;60644;55.858;37.390;2024-02-04T07:56:59;1.30;;;0.10;;
72601;SDS011;60644;55.858;37.390;2024-02-04T07:59:25;1.13;;;0.15;;
72601;SDS011;60644;55.858;37.390;2024-02-04T08:01:50;0.83;;;0.00;;
72601;SDS011;60644;55.858;37.390;2024-02-04T08:04:16;1.30;;;0.00;;
72601;SDS011;60644;55.858;37.390;2024-02-04T08:06:42;1.17;;;0.00;;
72601;SDS011;60644;55.858;37.390;2024-02-04T08:09:07;0.68;;;0.00;;
72601;SDS011;60644;55.858;37.390;2024-02-04T08:11:37;0.77;;;0.00;;
72601;SDS011;60644;55.858;37.390;2024-02-04T08:14:03;0.60;;;0.10;;
72601;SDS011;60644;55.858;37.390;2024-02-04T08:16:28;2.38;;;0.10;;
72601;SDS011;60644;55.858;37.390;2024-02-04T08:18:55;1.27;;;0.17;;
72601;SDS011;60644;55.858;37.390;2024-02-04T08:21:21;1.75;;;0.00;;
72601;SDS011;60644;55.858;37.390;2024-02-04T08:23:46;1.65;;;0.10;;
72601;SDS011;60644;55.858;37.390;2024-02-04T08:26:12;3.70;;;0.10;;
72601;SDS011;60644;55.858;37.390;2024-02-04T08:28:38;1.85;;;0.10;;
72601;SDS011;60644;55.858;37.390;2024-02-04T08:31:04;1.35;;;0.10;;
72601;SDS011;60644;55.858;37.390;2024-02-04T08:33:30;2.50;;;0.47;;
72601;SDS011;60644;55.858;37.390;2024-02-04T08:35:55;4.50;;;0.28;;
72601;SDS011;60644;55.858;37.390;2024-02-04T08:38:21;3.17;;;0.10;;
72601;SDS011;60644;55.858;37.390;2024-02-04T08:40:47;3.58;;;0.47;;
72601;SDS011;60644;55.858;37.390;2024-02-04T08:43:16;3.35;;;0.30;;
72601;SDS011;60644;55.858;37.390;2024-02-04T08:45:42;1.10;;;0.10;;
72601;SDS011;60644;55.858;37.390;2024-02-04T08:48:07;4.75;;;0.30;;
72601;SDS011;60644;55.858;37.390;2024-02-04T08:50:33;3.30;;;0.40;;
72601;SDS011;60644;55.858;37.390;2024-02-04T08:52:59;5.38;;;0.57;;
72601;SDS011;60644;55.858;37.390;2024-02-04T08:55:25;6.10;;;0.50;;
72601;SDS011;60644;55.858;37.390;2024-02-04T08:57:50;6.43;;;0.55;;
72601;SDS011;60644;55.858;37.390;2024-02-04T09:00:18;5.82;;;0.90;;
72601;SDS011;60644;55.858;37.390;2024-02-04T09:02:44;11.70;;;0.60;;
72601;SDS011;60644;55.858;37.390;2024-02-04T09:05:11;6.35;;;1.13;;
72601;SDS011;60644;55.858;37.390;2024-02-04T09:07:38;4.00;;;0.82;;
72601;SDS011;60644;55.858;37.390;2024-02-04T09:10:04;5.22;;;0.80;;
72601;SDS011;60644;55.858;37.390;2024-02-04T09:12:30;4.23;;;0.70;;
72601;SDS011;60644;55.858;37.390;2024-02-04T09:14:57;5.18;;;0.60;;
72601;SDS011;60644;55.858;37.390;2024-02-04T09:17:22;3.70;;;0.30;;
72601;SDS011;60644;55.858;37.390;2024-02-04T09:19:48;8.87;;;0.60;;
72601;SDS011;60644;55.858;37.390;2024-02-04T09:22:14;6.22;;;0.77;;
72601;SDS011;60644;55.858;37.390;2024-02-04T09:24:40;6.57;;;0.50;;
72601;SDS011;60644;55.858;37.390;2024-02-04T09:27:05;4.47;;;0.35;;
72601;SDS011;60644;55.858;37.390;2024-02-04T09:29:31;5.27;;;0.50;;
72601;SDS011;60644;55.858;37.390;2024-02-04T09:31:57;5.32;;;0.60;;
72601;SDS011;60644;55.858;37.390;2024-02-04T09:34:23;5.40;;;0.53;;
72601;SDS011;60644;55.858;37.390;2024-02-04T09:36:49;5.43;;;0.52;;
72601;SDS011;60644;55.858;37.390;2024-02-04T09:39:14;4.67;;;0.40;;
72601;SDS011;60644;55.858;37.390;2024-02-04T09:41:40;6.15;;;0.80;;
72601;SDS011;60644;55.858;37.390;2024-02-04T09:44:06;6.03;;;0.80;;
72601;SDS011;60644;55.858;37.390;2024-02-04T09:46:32;4.20;;;0.60;;
72601;SDS011;60644;55.858;37.390;2024-02-04T09:49:02;3.72;;;0.30;;
72601;SDS011;60644;55.858;37.390;2024-02-04T09:51:28;4.43;;;0.30;;
72601;SDS011;60644;55.858;37.390;2024-02-04T09:53:54;5.37;;;0.70;;
72601;SDS011;60644;55.858;37.390;2024-02-04T09:56:24;7.45;;;1.10;;
72601;SDS011;60644;55.858;37.390;2024-02-04T09:58:50;4.10;;;0.90;;
72601;SDS011;60644;55.858;37.390;2024-02-04T10:01:18;7.25;;;1.27;;
72601;SDS011;60644;55.858;37.390;2024-02-04T10:03:46;5.75;;;1.60;;
72601;SDS011;60644;55.858;37.390;2024-02-04T10:06:12;7.17;;;1.43;;
72601;SDS011;60644;55.858;37.390;2024-02-04T10:08:38;6.28;;;1.30;;
72601;SDS011;60644;55.858;37.390;2024-02-04T10:11:03;8.03;;;1.13;;
72601;SDS011;60644;55.858;37.390;2024-02-04T10:13:29;8.98;;;1.10;;
72601;SDS011;60644;55.858;37.390;2024-02-04T10:15:55;7.32;;;0.75;;
72601;SDS011;60644;55.858;37.390;2024-02-04T10:18:21;5.10;;;0.40;;
72601;SDS011;60644;55.858;37.390;2024-02-04T10:20:47;4.68;;;0.65;;
72601;SDS011;60644;55.858;37.390;2024-02-04T10:23:14;5.40;;;0.60;;
72601;SDS011;60644;55.858;37.390;2024-02-04T10:25:39;7.33;;;0.40;;
72601;SDS011;60644;55.858;37.390;2024-02-04T10:28:05;3.78;;;0.60;;
72601;SDS011;60644;55.858;37.390;2024-02-04T10:30:31;4.15;;;0.40;;
72601;SDS011;60644;55.858;37.390;2024-02-04T10:32:57;8.18;;;0.82;;
72601;SDS011;60644;55.858;37.390;2024-02-04T10:35:24;6.87;;;0.47;;
72601;SDS011;60644;55.858;37.390;2024-02-04T10:37:50;7.40;;;0.80;;
72601;SDS011;60644;55.858;37.390;2024-02-04T10:40:16;4.45;;;0.47;;
72601;SDS011;60644;55.858;37.390;2024-02-04T10:42:43;4.77;;;0.30;;
72601;SDS011;60644;55.858;37.390;2024-02-04T10:45:09;5.90;;;0.65;;
72601;SDS011;60644;55.858;37.390;2024-02-04T10:47:38;7.13;;;0.60;;
72601;SDS011;60644;55.858;37.390;2024-02-04T10:50:04;5.68;;;0.60;;
72601;SDS011;60644;55.858;37.390;2024-02-04T10:52:35;4.80;;;0.40;;
72601;SDS011;60644;55.858;37.390;2024-02-04T10:55:04;4.30;;;0.60;;
72601;SDS011;60644;55.858;37.390;2024-02-04T10:57:32;6.35;;;0.60;;
72601;SDS011;60644;55.858;37.390;2024-02-04T10:59:58;9.80;;;1.10;;
72601;SDS011;60644;55.858;37.390;2024-02-04T11:02:24;5.15;;;0.40;;
72601;SDS011;60644;55.858;37.390;2024-02-04T11:04:50;7.70;;;0.63;;
72601;SDS011;60644;55.858;37.390;2024-02-04T11:07:17;7.30;;;0.60;;
72601;SDS011;60644;55.858;37.390;2024-02-04T11:09:45;2.22;;;0.40;;
72601;SDS011;60644;55.858;37.390;2024-02-04T11:12:13;4.90;;;0.45;;
72601;SDS011;60644;55.858;37.390;2024-02-04T11:14:40;4.33;;;0.30;;
72601;SDS011;60644;55.858;37.390;2024-02-04T11:17:20;4.18;;;0.30;;
72601;SDS011;60644;55.858;37.390;2024-02-04T11:27:25;4.33;;;0.40;;
72601;SDS011;60644;55.858;37.390;2024-02-04T11:29:51;4.95;;;0.73;;
72601;SDS011;60644;55.858;37.390;2024-02-04T11:32:17;6.85;;;0.30;;
72601;SDS011;60644;55.858;37.390;2024-02-04T11:34:44;6.30;;;0.30;;
72601;SDS011;60644;55.858;37.390;2024-02-04T11:37:16;2.83;;;0.20;;
72601;SDS011;60644;55.858;37.390;2024-02-04T11:39:51;4.97;;;0.30;;
72601;SDS011;60644;55.858;37.390;2024-02-04T11:42:18;3.55;;;0.30;;
72601;SDS011;60644;55.858;37.390;2024-02-04T11:44:44;1.73;;;0.10;;
72601;SDS011;60644;55.858;37.390;2024-02-04T11:47:09;1.30;;;0.10;;
72601;SDS011;60644;55.858;37.390;2024-02-04T11:49:35;2.25;;;0.20;;
72601;SDS011;60644;55.858;37.390;2024-02-04T11:52:01;0.93;;;0.10;;
72601;SDS011;60644;55.858;37.390;2024-02-04T11:54:26;4.13;;;0.30;;
72601;SDS011;60644;55.858;37.390;2024-02-04T11:56:52;5.18;;;0.28;;
72601;SDS011;60644;55.858;37.390;2024-02-04T11:59:22;2.92;;;0.20;;
72601;SDS011;60644;55.858;37.390;2024-02-04T12:01:55;1.43;;;0.10;;
72601;SDS011;60644;55.858;37.390;2024-02-04T12:04:21;5.70;;;0.25;;
72601;SDS011;60644;55.858;37.390;2024-02-04T12:06:47;2.58;;;0.10;;
72601;SDS011;60644;55.858;37.390;2024-02-04T12:09:16;2.95;;;0.10;;
72601;SDS011;60644;55.858;37.390;2024-02-04T12:11:43;1.77;;;0.00;;
72601;SDS011;60644;55.858;37.390;2024-02-04T12:14:09;2.05;;;0.10;;
72601;SDS011;60644;55.858;37.390;2024-02-04T12:16:35;3.60;;;0.17;;
72601;SDS011;60644;55.858;37.390;2024-02-04T12:19:02;3.78;;;0.10;;
72601;SDS011;60644;55.858;37.390;2024-02-04T12:21:32;3.60;;;0.35;;
72601;SDS011;60644;55.858;37.390;2024-02-04T12:23:58;3.30;;;0.20;;
72601;SDS011;60644;55.858;37.390;2024-02-04T12:26:24;3.65;;;0.20;;
72601;SDS011;60644;55.858;37.390;2024-02-04T12:28:50;1.65;;;0.10;;
72601;SDS011;60644;55.858;37.390;2024-02-04T12:31:17;2.40;;;0.20;;
72601;SDS011;60644;55.858;37.390;2024-02-04T12:33:43;3.10;;;0.10;;
72601;SDS011;60644;55.858;37.390;2024-02-04T12:36:10;2.67;;;0.13;;
72601;SDS011;60644;55.858;37.390;2024-02-04T12:38:35;3.75;;;0.20;;
72601;SDS011;60644;55.858;37.390;2024-02-04T12:41:02;4.18;;;0.38;;
72601;SDS011;60644;55.858;37.390;2024-02-04T12:43:28;3.33;;;0.20;;
72601;SDS011;60644;55.858;37.390;2024-02-04T12:45:56;3.50;;;0.47;;
72601;SDS011;60644;55.858;37.390;2024-02-04T12:48:21;2.60;;;0.20;;
72601;SDS011;60644;55.858;37.390;2024-02-04T12:50:48;2.47;;;0.27;;
72601;SDS011;60644;55.858;37.390;2024-02-04T12:53:14;2.05;;;0.30;;
72601;SDS011;60644;55.858;37.390;2024-02-04T12:55:40;4.05;;;0.30;;
72601;SDS011;60644;55.858;37.390;2024-02-04T12:58:09;4.47;;;0.20;;
72601;SDS011;60644;55.858;37.390;2024-02-04T13:00:37;1.77;;;0.10;;
72601;SDS011;60644;55.858;37.390;2024-02-04T13:03:04;4.30;;;0.30;;
72601;SDS011;60644;55.858;37.390;2024-02-04T13:05:30;2.45;;;0.10;;
72601;SDS011;60644;55.858;37.390;2024-02-04T13:08:00;2.75;;;0.20;;
72601;SDS011;60644;55.858;37.390;2024-02-04T13:10:28;3.05;;;0.22;;
72601;SDS011;60644;55.858;37.390;2024-02-04T13:13:00;1.40;;;0.10;;
72601;SDS011;60644;55.858;37.390;2024-02-04T13:15:27;4.80;;;0.20;;
72601;SDS011;60644;55.858;37.390;2024-02-04T13:17:53;4.47;;;0.43;;
72601;SDS011;60644;55.858;37.390;2024-02-04T13:20:18;1.97;;;0.20;;
72601;SDS011;60644;55.858;37.390;2024-02-04T13:22:44;6.63;;;0.50;;
72601;SDS011;60644;55.858;37.390;2024-02-04T13:25:10;5.63;;;0.70;;
72601;SDS011;60644;55.858;37.390;2024-02-04T13:27:35;3.47;;;0.32;;
72601;SDS011;60644;55.858;37.390;2024-02-04T13:30:01;2.77;;;0.17;;
72601;SDS011;60644;55.858;37.390;2024-02-04T13:32:29;3.53;;;0.40;;
72601;SDS011;60644;55.858;37.390;2024-02-04T13:34:55;2.05;;;0.10;;
72601;SDS011;60644;55.858;37.390;2024-02-04T13:37:20;3.10;;;0.20;;
72601;SDS011;60644;55.858;37.390;2024-02-04T13:39:49;2.00;;;0.20;;
72601;SDS011;60644;55.858;37.390;2024-02-04T13:42:16;2.17;;;0.20;;
72601;SDS011;60644;55.858;37.390;2024-02-04T13:44:42;8.15;;;0.35;;
72601;SDS011;60644;55.858;37.390;2024-02-04T13:47:07;6.17;;;0.23;;
72601;SDS011;60644;55.858;37.390;2024-02-04T13:49:33;3.97;;;0.30;;
72601;SDS011;60644;55.858;37.390;2024-02-04T13:51:59;5.67;;;0.47;;
72601;SDS011;60644;55.858;37.390;2024-02-04T13:54:24;3.17;;;0.17;;
72601;SDS011;60644;55.858;37.390;2024-02-04T13:56:50;2.47;;;0.23;;
72601;SDS011;60644;55.858;37.390;2024-02-04T13:59:16;2.58;;;0.40;;
72601;SDS011;60644;55.858;37.390;2024-02-04T14:01:44;3.07;;;0.40;;
72601;SDS011;60644;55.858;37.390;2024-02-04T14:04:10;3.95;;;0.45;;
72601;SDS011;60644;55.858;37.390;2024-02-04T14:06:35;2.10;;;0.40;;
72601;SDS011;60644;55.858;37.390;2024-02-04T14:09:01;4.37;;;0.80;;
72601;SDS011;60644;55.858;37.390;2024-02-04T14:11:28;5.32;;;0.60;;
72601;SDS011;60644;55.858;37.390;2024-02-04T14:13:54;7.05;;;0.70;;
72601;SDS011;60644;55.858;37.390;2024-02-04T14:16:19;4.95;;;0.77;;
72601;SDS011;60644;55.858;37.390;2024-02-04T14:18:45;3.70;;;0.40;;
72601;SDS011;60644;55.858;37.390;2024-02-04T14:21:11;1.83;;;0.20;;
72601;SDS011;60644;55.858;37.390;2024-02-04T14:23:40;3.92;;;0.30;;
72601;SDS011;60644;55.858;37.390;2024-02-04T14:26:05;4.82;;;0.40;;
72601;SDS011;60644;55.858;37.390;2024-02-04T14:28:34;2.92;;;0.32;;
72601;SDS011;60644;55.858;37.390;2024-02-04T14:31:07;4.73;;;0.63;;
72601;SDS011;60644;55.858;37.390;2024-02-04T14:33:32;4.00;;;0.50;;
72601;SDS011;60644;55.858;37.390;2024-02-04T14:35:58;1.98;;;0.30;;
72601;SDS011;60644;55.858;37.390;2024-02-04T14:38:26;3.42;;;0.50;;
72601;SDS011;60644;55.858;37.390;2024-02-04T14:40:51;2.40;;;0.30;;
72601;SDS011;60644;55.858;37.390;2024-02-04T14:43:17;3.20;;;0.43;;
72601;SDS011;60644;55.858;37.390;2024-02-04T14:45:45;5.03;;;0.40;;